Time;durP1;ratioP1;P1;durP2;ratioP2;P2;SDS_P1;SDS_P2;PMS_P1;PMS_P2;Temp;Humidity;BMP_temperature;BMP_pressure;BME280_temperature;BME280_humidity;BME280_pressure;Samples;Min_cycle;Max_cycle;Signal;HPM_P1;HPM_P2
2021/06/02 00:00:34;;;;;;;5.60;1.85;;;12.60;85.00;;;;;;5136765;27;20172;-60
2021/06/02 00:03:00;;;;;;;2.95;1.80;;;12.50;86.70;;;;;;5117341;27;20180;-60
2021/06/02 00:05:26;;;;;;;6.00;1.48;;;12.50;86.60;;;;;;5117512;27;20175;-60
2021/06/02 00:07:53;;;;;;;7.70;1.90;;;12.50;87.40;;;;;;5118275;27;20229;-58
2021/06/02 00:10:19;;;;;;;3.58;1.80;;;12.40;88.00;;;;;;5118401;27;20585;-60
2021/06/02 00:12:46;;;;;;;8.52;2.10;;;12.40;88.40;;;;;;5117597;27;20180;-60
2021/06/02 00:15:12;;;;;;;5.32;2.08;;;12.30;90.00;;;;;;5136128;27;20179;-60
2021/06/02 00:17:38;;;;;;;5.10;2.10;;;12.30;90.10;;;;;;5136257;27;20171;-60
2021/06/02 00:20:08;;;;;;;3.58;2.00;;;12.30;90.60;;;;;;5135588;27;20176;-60
2021/06/02 00:22:34;;;;;;;4.45;1.50;;;12.20;90.20;;;;;;5136226;27;20176;-60
2021/06/02 00:25:00;;;;;;;7.55;1.88;;;12.20;90.30;;;;;;5136061;27;20516;-60
2021/06/02 00:27:27;;;;;;;6.78;2.08;;;12.20;90.50;;;;;;5136235;27;20628;-60
2021/06/02 00:29:53;;;;;;;3.60;1.23;;;12.10;91.20;;;;;;5100106;27;20682;-60
2021/06/02 00:32:20;;;;;;;2.67;1.50;;;12.10;91.30;;;;;;5100480;27;20172;-60
2021/06/02 00:34:49;;;;;;;12.68;2.10;;;12.10;91.30;;;;;;5134240;27;20207;-59
2021/06/02 00:37:15;;;;;;;5.13;2.03;;;12.00;91.40;;;;;;5114712;27;20183;-60
2021/06/02 00:39:47;;;;;;;3.47;1.77;;;12.00;92.00;;;;;;5117228;27;20175;-60
2021/06/02 00:42:14;;;;;;;8.65;1.90;;;12.00;92.40;;;;;;5135975;27;20197;-60
2021/06/02 00:44:40;;;;;;;4.55;2.08;;;12.00;92.40;;;;;;5135507;27;20187;-59
2021/06/02 00:47:06;;;;;;;6.00;1.60;;;12.00;92.40;;;;;;5117202;27;20176;-60
2021/06/02 00:49:32;;;;;;;4.35;2.10;;;11.90;92.70;;;;;;5135924;27;20172;-60
2021/06/02 00:52:03;;;;;;;5.95;2.10;;;11.90;92.90;;;;;;5135189;27;20219;-60
2021/06/02 00:54:35;;;;;;;3.38;2.13;;;11.90;93.30;;;;;;5135776;27;20175;-60
2021/06/02 00:57:10;;;;;;;2.97;1.90;;;11.90;93.30;;;;;;5134409;27;20173;-59
2021/06/02 00:59:50;;;;;;;6.15;1.80;;;11.90;93.40;;;;;;5135195;27;20176;-60
2021/06/02 01:02:18;;;;;;;3.78;1.85;;;11.90;93.60;;;;;;5134911;27;20662;-60
2021/06/02 01:04:44;;;;;;;3.08;1.60;;;11.90;93.90;;;;;;5116952;27;20176;-60
2021/06/02 01:07:11;;;;;;;6.25;2.22;;;11.90;93.90;;;;;;5135707;27;20542;-60
2021/06/02 01:09:44;;;;;;;3.35;1.92;;;11.90;93.80;;;;;;5135372;27;20176;-60
2021/06/02 01:12:16;;;;;;;4.35;2.00;;;11.80;94.20;;;;;;5135035;27;20207;-60
2021/06/02 01:14:43;;;;;;;5.93;2.17;;;11.80;94.40;;;;;;5116777;27;20164;-60
2021/06/02 01:17:12;;;;;;;3.95;1.92;;;11.80;94.60;;;;;;5134743;27;20190;-59
2021/06/02 01:19:38;;;;;;;3.92;1.90;;;11.80;94.90;;;;;;5116844;27;20187;-60
2021/06/02 01:22:04;;;;;;;8.25;2.38;;;11.80;94.80;;;;;;5135443;27;20172;-59
2021/06/02 01:24:31;;;;;;;5.60;2.10;;;11.80;94.90;;;;;;5135591;27;20172;-60
2021/06/02 01:26:59;;;;;;;7.03;1.90;;;11.70;94.70;;;;;;5134550;27;20188;-60
2021/06/02 01:29:25;;;;;;;4.57;1.98;;;11.70;95.20;;;;;;5134963;27;20172;-60
2021/06/02 01:32:19;;;;;;;5.28;2.97;;;11.70;95.40;;;;;;5115615;27;20706;-59
2021/06/02 01:35:15;;;;;;;9.40;1.88;;;11.70;95.60;;;;;;5118436;27;20215;-59
2021/06/02 01:38:25;;;;;;;5.90;1.80;;;11.60;95.30;;;;;;5132296;27;20168;-59
2021/06/02 01:41:28;;;;;;;4.00;1.63;;;11.60;95.80;;;;;;5135097;27;20157;-60
2021/06/02 01:44:22;;;;;;;8.00;2.28;;;11.60;96.50;;;;;;5134376;27;20187;-59
2021/06/02 01:47:14;;;;;;;2.58;1.70;;;11.50;96.40;;;;;;5134526;27;20190;-60
2021/06/02 01:50:17;;;;;;;7.88;1.75;;;11.50;96.50;;;;;;5115654;27;20188;-60
2021/06/02 01:52:43;;;;;;;3.35;1.40;;;11.50;96.60;;;;;;5134520;27;20199;-60
2021/06/02 01:55:47;;;;;;;4.50;1.92;;;11.50;96.40;;;;;;5133364;27;20644;-60
2021/06/02 01:58:45;;;;;;;3.17;1.65;;;11.50;97.00;;;;;;5114233;27;20190;-59
2021/06/02 02:01:33;;;;;;;6.97;1.90;;;11.50;97.00;;;;;;5111410;27;20643;-59
2021/06/02 02:03:59;;;;;;;4.22;1.95;;;11.40;97.00;;;;;;5134607;27;20527;-59
2021/06/02 02:06:25;;;;;;;3.20;1.80;;;11.40;97.00;;;;;;5133248;27;20179;-59
2021/06/02 02:09:05;;;;;;;4.00;2.17;;;11.50;97.10;;;;;;5133522;27;20504;-60
2021/06/02 02:11:34;;;;;;;4.18;2.17;;;11.40;97.40;;;;;;5134375;27;20652;-60
2021/06/02 02:14:06;;;;;;;4.97;2.00;;;11.40;97.60;;;;;;5133296;27;20518;-59
2021/06/02 02:17:09;;;;;;;9.85;2.30;;;11.40;97.70;;;;;;5134074;27;20176;-60
2021/06/02 02:20:00;;;;;;;5.53;2.33;;;11.40;97.60;;;;;;5128807;27;20202;-60
2021/06/02 02:22:48;;;;;;;3.47;1.75;;;11.40;97.60;;;;;;5125936;27;20629;-59
2021/06/02 02:25:25;;;;;;;2.63;1.77;;;11.40;97.70;;;;;;5114362;27;20190;-60
2021/06/02 02:28:29;;;;;;;3.75;2.10;;;11.40;97.70;;;;;;5133173;27;20666;-59
2021/06/02 02:31:15;;;;;;;3.70;2.08;;;11.50;97.70;;;;;;5132074;27;20188;-60
2021/06/02 02:33:48;;;;;;;2.38;1.45;;;11.50;97.80;;;;;;5097556;27;20179;-57
2021/06/02 02:36:22;;;;;;;5.20;1.88;;;11.50;98.00;;;;;;5114524;27;20192;-59
2021/06/02 02:39:21;;;;;;;6.03;1.98;;;11.60;98.10;;;;;;5132328;27;20188;-59
2021/06/02 02:42:24;;;;;;;3.55;1.92;;;11.60;98.10;;;;;;5132216;27;20168;-60
2021/06/02 02:45:08;;;;;;;2.65;1.70;;;11.60;98.30;;;;;;5117989;27;20164;-60
2021/06/02 02:47:53;;;;;;;2.92;2.08;;;11.50;98.20;;;;;;5115374;27;20573;-60
2021/06/02 02:50:38;;;;;;;4.25;2.20;;;11.50;98.10;;;;;;5132366;27;20195;-60
2021/06/02 02:53:12;;;;;;;6.65;2.25;;;11.50;98.50;;;;;;5114763;27;20214;-61
2021/06/02 02:55:39;;;;;;;7.75;2.22;;;11.50;98.90;;;;;;5095933;27;20176;-60
2021/06/02 02:58:26;;;;;;;5.45;2.22;;;11.50;98.50;;;;;;5133201;27;20628;-60
2021/06/02 03:01:23;;;;;;;2.90;2.08;;;11.50;98.40;;;;;;5133467;27;20163;-60
2021/06/02 03:03:54;;;;;;;5.60;2.10;;;11.50;99.10;;;;;;5109932;27;20168;-60
2021/06/02 03:06:20;;;;;;;5.07;2.20;;;11.50;98.70;;;;;;5097859;27;20176;-59
2021/06/02 03:09:14;;;;;;;5.28;2.22;;;11.50;98.70;;;;;;5132920;27;20628;-59
2021/06/02 03:12:00;;;;;;;5.25;1.95;;;11.50;99.10;;;;;;5117139;28;20203;-60
2021/06/02 03:14:48;;;;;;;7.97;2.35;;;11.50;98.80;;;;;;5117586;28;20171;-60
2021/06/02 03:17:29;;;;;;;4.30;2.60;;;11.50;99.30;;;;;;5112863;28;20186;-61
2021/06/02 03:20:03;;;;;;;4.40;2.25;;;11.50;99.50;;;;;;5132311;28;20175;-59
2021/06/02 03:22:37;;;;;;;4.13;2.45;;;11.40;99.60;;;;;;5131708;28;20188;-60
2021/06/02 03:25:20;;;;;;;5.03;2.30;;;11.40;99.80;;;;;;5132603;28;20182;-60
2021/06/02 03:28:14;;;;;;;2.60;2.08;;;11.40;99.80;;;;;;5111276;28;20163;-60
2021/06/02 03:31:02;;;;;;;4.63;2.22;;;11.40;99.70;;;;;;5112194;28;20183;-60
2021/06/02 03:34:04;;;;;;;3.97;2.20;;;11.40;99.90;;;;;;5087784;28;20549;-60
2021/06/02 03:36:33;;;;;;;4.97;2.17;;;11.50;99.90;;;;;;5114884;28;20167;-60
2021/06/02 03:39:08;;;;;;;4.65;2.35;;;11.50;99.90;;;;;;5133004;28;20172;-60
2021/06/02 03:41:40;;;;;;;4.25;2.30;;;11.50;99.90;;;;;;5097781;28;20171;-60
2021/06/02 03:44:16;;;;;;;4.72;2.17;;;11.60;99.90;;;;;;5131972;28;20175;-60
2021/06/02 03:46:54;;;;;;;5.13;2.08;;;11.60;99.90;;;;;;5131677;28;20187;-59
2021/06/02 03:49:27;;;;;;;5.10;2.25;;;11.70;99.90;;;;;;5132537;28;20663;-60
2021/06/02 03:51:53;;;;;;;2.97;2.00;;;11.70;99.70;;;;;;5113490;28;20220;-59
2021/06/02 03:54:22;;;;;;;8.70;2.47;;;11.70;99.70;;;;;;5132335;28;20160;-59
2021/06/02 03:57:16;;;;;;;3.83;2.30;;;11.70;99.90;;;;;;5131385;27;20180;-59
2021/06/02 04:00:08;;;;;;;2.67;2.08;;;11.80;99.90;;;;;;5131547;28;20176;-59
2021/06/02 04:02:53;;;;;;;3.78;2.03;;;11.80;99.90;;;;;;5117512;28;20182;-59
2021/06/02 04:05:30;;;;;;;6.07;2.42;;;11.80;99.90;;;;;;5131821;28;20168;-60
2021/06/02 04:08:16;;;;;;;4.43;2.70;;;11.80;99.90;;;;;;5115124;28;20636;-60
2021/06/02 04:11:03;;;;;;;6.00;2.28;;;11.90;99.90;;;;;;5132988;28;20664;-59
2021/06/02 04:14:00;;;;;;;5.13;2.30;;;11.90;99.90;;;;;;5132399;28;20524;-59
2021/06/02 04:16:33;;;;;;;7.15;2.50;;;11.90;99.90;;;;;;5132400;28;20176;-59
2021/06/02 04:19:06;;;;;;;4.88;2.47;;;11.90;99.90;;;;;;5132083;28;20192;-59
2021/06/02 04:21:34;;;;;;;7.68;2.63;;;11.90;99.90;;;;;;5132191;27;20648;-60
2021/06/02 04:24:03;;;;;;;4.88;2.65;;;11.90;99.90;;;;;;5132229;27;20199;-60
2021/06/02 04:26:30;;;;;;;10.75;2.72;;;11.90;99.90;;;;;;5136165;27;20191;-60
2021/06/02 04:28:57;;;;;;;6.68;2.20;;;11.90;99.90;;;;;;5118339;27;20175;-59
2021/06/02 04:31:23;;;;;;;5.25;2.85;;;11.90;99.90;;;;;;5091187;28;20683;-61
2021/06/02 04:33:49;;;;;;;8.32;2.83;;;11.90;99.90;;;;;;5097721;28;20179;-59
2021/06/02 04:36:15;;;;;;;8.52;2.40;;;11.90;99.90;;;;;;5134133;27;20168;-59
2021/06/02 04:38:41;;;;;;;5.88;2.28;;;11.90;99.90;;;;;;5135873;27;20176;-60
2021/06/02 04:41:09;;;;;;;8.63;2.80;;;12.00;99.90;;;;;;5136345;27;20192;-59
2021/06/02 04:43:37;;;;;;;6.70;2.50;;;12.00;99.90;;;;;;5135888;27;20175;-59
2021/06/02 04:46:05;;;;;;;6.80;2.50;;;12.00;99.90;;;;;;5136343;27;20159;-59
2021/06/02 04:48:32;;;;;;;8.15;2.45;;;12.00;99.90;;;;;;5136070;27;20548;-59
2021/06/02 04:51:04;;;;;;;4.43;2.60;;;12.00;99.90;;;;;;5136055;27;20164;-59
2021/06/02 04:53:42;;;;;;;4.72;2.60;;;12.10;99.90;;;;;;5117266;27;20184;-59
2021/06/02 04:56:20;;;;;;;4.40;2.42;;;12.10;99.90;;;;;;5136389;27;20171;-59
2021/06/02 04:59:12;;;;;;;9.35;2.53;;;12.10;99.90;;;;;;5136376;27;20511;-60
2021/06/02 05:01:54;;;;;;;6.78;2.88;;;12.20;99.90;;;;;;5117837;27;20156;-60
2021/06/02 05:04:47;;;;;;;9.38;2.65;;;12.30;99.90;;;;;;5135900;27;20500;-60
2021/06/02 05:07:21;;;;;;;5.28;2.42;;;12.30;99.90;;;;;;5119301;27;20210;-60
2021/06/02 05:10:29;;;;;;;5.65;2.58;;;12.40;99.90;;;;;;5115769;28;20183;-59
2021/06/02 05:13:02;;;;;;;7.28;2.50;;;12.40;99.90;;;;;;5096604;27;20227;-59
2021/06/02 05:15:31;;;;;;;25.95;3.38;;;12.60;99.90;;;;;;5117020;27;20682;-60
2021/06/02 05:18:07;;;;;;;4.93;2.85;;;12.90;99.90;;;;;;5135352;27;20175;-60
2021/06/02 05:24:05;;;;;;;11.48;3.47;;;13.30;99.90;;;;;;5141980;27;20167;-60
2021/06/02 05:26:46;;;;;;;11.18;2.50;;;13.40;99.90;;;;;;5134035;27;20187;-59
2021/06/02 05:29:36;;;;;;;4.38;2.60;;;13.50;99.90;;;;;;5116113;27;20188;-59
2021/06/02 05:32:36;;;;;;;4.75;2.63;;;13.50;99.50;;;;;;5136208;27;20211;-60
2021/06/02 05:35:14;;;;;;;5.15;2.60;;;13.60;99.80;;;;;;5142147;27;20211;-60
2021/06/02 05:37:49;;;;;;;9.02;2.60;;;13.70;99.40;;;;;;5143366;27;20160;-60
2021/06/02 05:40:24;;;;;;;7.78;2.65;;;13.80;99.00;;;;;;5142053;27;20175;-59
2021/06/02 05:43:23;;;;;;;5.05;2.47;;;14.00;98.60;;;;;;5143389;27;20624;-59
2021/06/02 05:46:06;;;;;;;7.60;2.92;;;14.10;98.10;;;;;;5134045;27;20183;-58
2021/06/02 05:49:05;;;;;;;7.50;2.50;;;14.30;98.90;;;;;;5134445;27;20529;-59
2021/06/02 05:51:54;;;;;;;7.20;2.63;;;14.40;98.20;;;;;;5108761;27;20223;-60
2021/06/02 05:54:45;;;;;;;9.23;3.05;;;14.50;98.00;;;;;;5097344;28;20494;-60
2021/06/02 05:57:26;;;;;;;8.38;2.50;;;14.60;97.60;;;;;;5113726;28;20207;-60
2021/06/02 06:00:14;;;;;;;11.52;3.00;;;14.80;97.10;;;;;;5123064;27;20188;-59
2021/06/02 06:02:49;;;;;;;13.13;2.70;;;14.90;97.50;;;;;;5116162;27;20168;-59
2021/06/02 06:06:06;;;;;;;8.55;2.17;;;15.10;97.20;;;;;;5134076;27;20534;-59
2021/06/02 06:09:08;;;;;;;8.52;2.30;;;15.20;95.80;;;;;;5084102;27;20184;-59
2021/06/02 06:11:56;;;;;;;8.07;3.10;;;15.30;95.60;;;;;;5129709;27;20230;-59
2021/06/02 06:14:48;;;;;;;9.55;2.70;;;15.50;96.20;;;;;;5133858;27;20168;-59
2021/06/02 06:17:39;;;;;;;21.17;3.50;;;15.70;95.00;;;;;;5078239;27;20188;-59
2021/06/02 06:20:44;;;;;;;13.23;2.60;;;16.00;95.00;;;;;;5133092;27;20176;-59
2021/06/02 06:23:28;;;;;;;7.63;2.25;;;16.20;94.50;;;;;;5076595;27;20180;-59
2021/06/02 06:26:15;;;;;;;9.07;2.63;;;16.40;93.70;;;;;;5133551;27;20187;-60
2021/06/02 06:29:11;;;;;;;5.80;2.40;;;16.60;93.10;;;;;;5133063;27;20190;-59
2021/06/02 06:31:41;;;;;;;12.90;2.60;;;16.70;92.50;;;;;;5115301;27;20199;-59
2021/06/02 06:34:14;;;;;;;4.57;2.15;;;16.70;92.60;;;;;;5114840;27;20714;-60
2021/06/02 06:36:40;;;;;;;18.17;2.80;;;16.90;92.20;;;;;;5115859;27;20562;-59
2021/06/02 06:39:18;;;;;;;11.70;2.30;;;17.10;92.10;;;;;;5097505;27;20180;-61
2021/06/02 06:41:47;;;;;;;8.10;2.70;;;17.10;91.70;;;;;;5129561;27;20543;-59
2021/06/02 06:44:13;;;;;;;3.38;2.28;;;17.20;91.70;;;;;;5131527;27;20561;-60
2021/06/02 06:46:39;;;;;;;14.15;2.65;;;17.20;91.10;;;;;;5096856;27;20192;-60
2021/06/02 06:49:05;;;;;;;4.60;2.30;;;17.40;90.90;;;;;;5097829;27;20539;-60
2021/06/02 06:51:31;;;;;;;3.13;2.20;;;17.40;91.00;;;;;;5096301;27;20214;-59
2021/06/02 06:53:57;;;;;;;7.10;2.20;;;17.40;90.90;;;;;;5114605;27;20184;-59
2021/06/02 06:56:23;;;;;;;7.35;2.45;;;17.60;90.70;;;;;;5125958;27;20655;-60
2021/06/02 06:58:49;;;;;;;12.02;2.00;;;17.80;91.10;;;;;;5114412;27;20179;-60
2021/06/02 07:01:16;;;;;;;10.27;2.50;;;18.00;90.00;;;;;;5097511;27;20174;-59
2021/06/02 07:03:45;;;;;;;4.15;1.98;;;18.00;90.50;;;;;;5114083;27;20263;-59
2021/06/02 07:06:12;;;;;;;7.70;2.17;;;18.10;90.00;;;;;;5133008;27;20198;-59
2021/06/02 07:08:41;;;;;;;5.40;2.17;;;18.30;88.70;;;;;;5111838;27;20170;-60
2021/06/02 07:11:07;;;;;;;6.32;2.20;;;18.30;89.40;;;;;;5113233;28;20179;-60
2021/06/02 07:13:33;;;;;;;4.03;2.20;;;18.30;87.90;;;;;;5112224;28;20227;-59
2021/06/02 07:16:00;;;;;;;11.73;3.30;;;18.30;89.30;;;;;;5097420;27;20175;-59
2021/06/02 07:18:26;;;;;;;9.90;2.58;;;18.30;87.10;;;;;;5115690;27;20195;-59
2021/06/02 07:20:53;;;;;;;14.45;2.50;;;18.20;86.80;;;;;;5104955;27;20187;-60
2021/06/02 07:23:19;;;;;;;7.22;2.22;;;18.10;88.70;;;;;;5104341;27;20245;-59
2021/06/02 07:25:45;;;;;;;17.10;2.90;;;18.20;88.90;;;;;;5114436;28;20172;-59
2021/06/02 07:28:11;;;;;;;6.00;2.50;;;18.50;90.60;;;;;;5133062;28;20631;-59
2021/06/02 07:30:37;;;;;;;6.05;2.45;;;18.90;88.60;;;;;;5114205;28;20171;-59
2021/06/02 07:33:04;;;;;;;4.60;2.58;;;19.10;86.20;;;;;;5116894;27;20219;-59
2021/06/02 07:35:30;;;;;;;11.77;2.83;;;19.30;87.00;;;;;;5138682;27;20584;-60
2021/06/02 07:37:56;;;;;;;16.00;3.13;;;19.40;85.40;;;;;;5130688;27;20191;-61
2021/06/02 07:40:22;;;;;;;8.43;2.85;;;19.50;86.30;;;;;;5114635;28;20170;-60
2021/06/02 07:42:49;;;;;;;6.05;2.35;;;19.80;87.00;;;;;;5131527;28;20179;-60
2021/06/02 07:45:15;;;;;;;19.20;2.90;;;19.90;85.70;;;;;;5129256;28;20180;-60
2021/06/02 07:47:41;;;;;;;8.60;2.70;;;20.00;83.40;;;;;;5130246;28;20183;-59
2021/06/02 07:50:08;;;;;;;8.85;2.35;;;20.00;82.00;;;;;;5132404;28;20172;-59
2021/06/02 07:52:35;;;;;;;7.60;2.55;;;20.00;81.70;;;;;;5132126;27;20227;-60
2021/06/02 07:55:01;;;;;;;15.75;3.38;;;20.10;81.80;;;;;;5121196;27;20194;-59
2021/06/02 07:57:27;;;;;;;9.52;3.08;;;20.40;80.00;;;;;;5138609;27;20179;-59
2021/06/02 07:59:53;;;;;;;11.50;2.55;;;20.50;79.20;;;;;;5123929;27;20237;-59
2021/06/02 08:02:19;;;;;;;12.15;2.30;;;20.30;77.80;;;;;;5131381;27;20176;-59
2021/06/02 08:04:45;;;;;;;5.72;2.30;;;20.20;77.90;;;;;;5132379;27;20183;-59
2021/06/02 08:07:11;;;;;;;5.07;2.70;;;20.30;79.10;;;;;;5135965;27;20191;-58
2021/06/02 08:09:37;;;;;;;7.18;2.78;;;20.50;77.80;;;;;;5136635;27;20172;-58
2021/06/02 08:12:10;;;;;;;7.13;2.30;;;20.70;78.60;;;;;;5135823;27;20234;-58
2021/06/02 08:14:36;;;;;;;7.32;2.40;;;20.90;77.40;;;;;;5135968;27;20175;-58
2021/06/02 08:17:02;;;;;;;6.65;2.42;;;20.90;76.90;;;;;;5135404;27;20182;-58
2021/06/02 08:19:29;;;;;;;8.48;2.35;;;21.10;78.90;;;;;;5115431;27;20183;-58
2021/06/02 08:21:55;;;;;;;9.05;2.40;;;21.30;77.60;;;;;;5128390;27;20185;-58
2021/06/02 08:24:22;;;;;;;10.38;2.58;;;21.50;75.40;;;;;;5136210;27;20175;-58
2021/06/02 08:26:48;;;;;;;10.15;2.75;;;21.80;76.20;;;;;;5116087;27;20187;-58
2021/06/02 08:29:14;;;;;;;8.77;2.90;;;22.10;75.80;;;;;;5134927;27;20180;-59
2021/06/02 08:31:40;;;;;;;7.55;2.35;;;22.20;74.50;;;;;;5135598;27;20651;-57
2021/06/02 08:34:06;;;;;;;5.15;2.33;;;22.90;71.50;;;;;;5121516;27;20692;-58
2021/06/02 08:36:32;;;;;;;6.18;2.60;;;23.50;71.10;;;;;;5128236;27;20177;-59
2021/06/02 08:38:58;;;;;;;11.52;3.35;;;24.60;69.50;;;;;;5114692;28;20173;-58
2021/06/02 08:41:24;;;;;;;15.68;2.40;;;25.00;66.50;;;;;;5126826;27;20186;-59
2021/06/02 08:43:51;;;;;;;6.47;2.33;;;25.50;63.20;;;;;;5116569;27;20179;-59
2021/06/02 08:46:17;;;;;;;14.98;2.50;;;25.80;60.60;;;;;;5135173;27;20540;-59
2021/06/02 08:48:48;;;;;;;39.33;3.42;;;25.10;58.70;;;;;;5134750;27;20635;-58
2021/06/02 08:51:16;;;;;;;9.65;2.20;;;24.70;60.70;;;;;;5135737;27;20192;-59
2021/06/02 08:53:42;;;;;;;12.05;2.65;;;24.50;61.20;;;;;;5135300;27;20203;-59
2021/06/02 08:56:08;;;;;;;15.48;2.63;;;24.60;62.60;;;;;;5117172;27;20628;-59
2021/06/02 08:58:34;;;;;;;7.85;2.40;;;25.20;60.30;;;;;;5099353;27;20184;-58
2021/06/02 09:01:00;;;;;;;70.07;5.20;;;25.60;59.00;;;;;;5099053;27;20172;-59
2021/06/02 09:03:30;;;;;;;12.40;2.10;;;26.10;60.10;;;;;;5135644;27;20187;-59
2021/06/02 09:05:57;;;;;;;12.65;2.53;;;26.30;57.30;;;;;;5116895;27;20187;-58
2021/06/02 09:08:27;;;;;;;6.82;2.42;;;25.90;56.80;;;;;;5134482;27;20188;-58
2021/06/02 09:10:54;;;;;;;4.45;2.28;;;25.80;56.70;;;;;;5119099;27;20176;-60
2021/06/02 09:13:22;;;;;;;61.92;4.45;;;26.30;55.80;;;;;;5155475;27;20230;-60
2021/06/02 09:15:51;;;;;;;12.45;2.40;;;25.00;55.20;;;;;;5143865;27;20168;-60
2021/06/02 09:18:21;;;;;;;5.22;2.13;;;24.10;58.00;;;;;;5134396;27;20191;-59
2021/06/02 09:20:48;;;;;;;10.02;2.60;;;24.40;57.70;;;;;;5128002;27;20180;-59
2021/06/02 09:23:33;;;;;;;10.95;3.17;;;24.30;60.60;;;;;;5135408;27;20176;-59
2021/06/02 09:26:14;;;;;;;55.30;4.53;;;24.40;57.40;;;;;;5135277;27;20182;-58
2021/06/02 09:28:59;;;;;;;14.00;2.50;;;24.80;55.50;;;;;;5138871;27;20179;-60
2021/06/02 09:31:39;;;;;;;61.92;4.50;;;23.80;57.50;;;;;;5139905;27;20191;-59
2021/06/02 09:34:19;;;;;;;30.40;3.70;;;23.30;58.20;;;;;;5133883;27;20729;-59
2021/06/02 09:36:47;;;;;;;10.48;3.28;;;22.70;59.40;;;;;;5109369;27;20186;-58
2021/06/02 09:39:18;;;;;;;115.57;7.68;;;22.40;60.20;;;;;;5138832;27;20174;-59
2021/06/02 09:41:45;;;;;;;9.02;2.90;;;22.10;60.60;;;;;;5140189;27;20168;-58
2021/06/02 09:44:16;;;;;;;7.57;2.60;;;22.00;61.70;;;;;;5114702;27;20168;-59
2021/06/02 09:47:05;;;;;;;8.45;2.70;;;22.10;61.10;;;;;;5134002;27;20175;-59
2021/06/02 09:49:56;;;;;;;7.68;2.85;;;22.40;61.40;;;;;;5130808;27;20164;-59
2021/06/02 09:52:48;;;;;;;21.77;2.88;;;22.40;60.70;;;;;;5131219;27;20218;-58
2021/06/02 09:55:14;;;;;;;5.32;2.60;;;22.80;59.60;;;;;;5139368;27;20184;-59
2021/06/02 09:57:40;;;;;;;4.88;2.60;;;22.30;58.90;;;;;;5134008;27;20160;-59
2021/06/02 10:00:10;;;;;;;10.45;2.75;;;21.80;60.60;;;;;;5133529;27;20660;-59
2021/06/02 10:02:36;;;;;;;4.03;2.50;;;21.60;62.60;;;;;;5131893;27;20173;-59
2021/06/02 10:05:10;;;;;;;7.38;2.92;;;21.40;63.50;;;;;;5131279;27;20187;-59
2021/06/02 10:07:46;;;;;;;8.45;2.78;;;21.30;62.70;;;;;;5132338;27;20168;-59
2021/06/02 10:10:20;;;;;;;3.88;2.63;;;21.20;63.40;;;;;;5127615;27;20174;-59
2021/06/02 10:13:05;;;;;;;12.98;2.70;;;21.20;62.50;;;;;;5133127;27;20211;-59
2021/06/02 10:15:36;;;;;;;12.52;3.10;;;21.20;62.40;;;;;;5131217;27;20168;-60
2021/06/02 10:18:03;;;;;;;14.35;2.83;;;21.20;62.20;;;;;;5133049;27;20537;-50
2021/06/02 10:20:30;;;;;;;10.00;3.13;;;21.10;63.30;;;;;;5122705;27;20195;-53
2021/06/02 10:22:59;;;;;;;6.93;3.13;;;21.10;63.50;;;;;;5132931;27;20179;-48
2021/06/02 10:25:27;;;;;;;13.68;3.72;;;21.00;63.30;;;;;;5112759;27;20190;-52
2021/06/02 10:27:55;;;;;;;7.00;3.17;;;20.90;62.90;;;;;;5133336;27;20168;-48
2021/06/02 10:30:24;;;;;;;9.05;3.30;;;20.90;64.00;;;;;;5133178;27;20171;-49
2021/06/02 10:32:52;;;;;;;7.60;3.55;;;21.00;63.60;;;;;;5132507;27;20533;-52
2021/06/02 10:35:18;;;;;;;12.45;3.70;;;21.10;62.00;;;;;;5130947;27;20208;-50
2021/06/02 10:37:44;;;;;;;5.65;3.53;;;21.20;62.10;;;;;;5131400;27;20202;-49
2021/06/02 10:40:21;;;;;;;5.68;2.97;;;21.20;62.30;;;;;;5132678;27;20650;-48
2021/06/02 10:42:52;;;;;;;30.17;4.10;;;21.60;61.20;;;;;;5100169;27;20551;-48
2021/06/02 10:45:35;;;;;;;10.65;3.33;;;22.30;61.50;;;;;;5131762;27;20615;-49
2021/06/02 10:48:03;;;;;;;5.97;2.80;;;23.30;59.80;;;;;;5099432;27;20160;-49
2021/06/02 10:50:31;;;;;;;5.78;2.80;;;23.90;58.20;;;;;;5133319;27;20616;-50
2021/06/02 10:52:57;;;;;;;8.10;3.03;;;23.60;56.60;;;;;;5136703;27;20713;-51
2021/06/02 10:55:43;;;;;;;6.10;2.67;;;23.10;57.20;;;;;;5096738;27;20176;-48
2021/06/02 10:58:22;;;;;;;46.13;8.10;;;22.90;57.00;;;;;;5127244;27;20171;-50
2021/06/02 11:00:50;;;;;;;6.88;2.53;;;22.80;58.20;;;;;;5132392;27;20522;-48
2021/06/02 11:03:19;;;;;;;9.88;3.00;;;22.50;56.80;;;;;;5138546;27;20201;-48
2021/06/02 11:05:45;;;;;;;15.52;3.88;;;22.50;57.10;;;;;;5133141;27;20172;-48
2021/06/02 11:08:11;;;;;;;12.73;3.50;;;22.10;57.60;;;;;;5131979;27;20176;-51
2021/06/02 11:10:38;;;;;;;6.22;2.90;;;22.10;58.00;;;;;;5132815;27;20180;-49
2021/06/02 11:13:05;;;;;;;4.65;2.78;;;22.20;59.90;;;;;;5132779;27;20211;-50
2021/06/02 11:15:42;;;;;;;11.43;2.75;;;22.30;57.80;;;;;;5132625;27;20160;-47
2021/06/02 11:18:11;;;;;;;10.65;3.10;;;22.70;57.80;;;;;;5106143;28;20178;-49
2021/06/02 11:20:38;;;;;;;17.35;3.53;;;23.40;56.90;;;;;;5132177;27;20172;-47
2021/06/02 11:23:05;;;;;;;9.05;3.13;;;23.10;56.40;;;;;;5118368;28;20191;-50
2021/06/02 11:25:32;;;;;;;7.53;2.92;;;22.70;56.70;;;;;;5132013;27;20173;-46
2021/06/02 11:27:58;;;;;;;8.25;3.75;;;22.50;57.40;;;;;;5132282;28;20200;-48
2021/06/02 11:30:25;;;;;;;6.63;3.10;;;22.50;57.50;;;;;;5131775;27;20642;-47
2021/06/02 11:32:51;;;;;;;24.95;4.28;;;22.40;57.70;;;;;;5136778;27;20199;-48
2021/06/02 11:35:17;;;;;;;25.52;3.95;;;22.10;57.60;;;;;;5136651;27;20574;-49
2021/06/02 11:37:44;;;;;;;50.00;4.95;;;22.00;58.20;;;;;;5136818;27;20202;-48
2021/06/02 11:40:11;;;;;;;12.48;3.80;;;21.70;57.70;;;;;;5136045;27;20164;-48
2021/06/02 11:42:40;;;;;;;9.93;3.72;;;21.60;59.60;;;;;;5118676;27;20172;-48
2021/06/02 11:45:08;;;;;;;8.80;4.25;;;21.80;59.70;;;;;;5136353;27;20180;-47
2021/06/02 11:47:35;;;;;;;9.30;3.30;;;22.00;59.50;;;;;;5118331;27;20172;-52
2021/06/02 11:50:05;;;;;;;6.22;3.40;;;22.00;58.50;;;;;;5112967;28;20632;-48
2021/06/02 11:52:31;;;;;;;7.78;3.78;;;22.10;58.40;;;;;;5116438;28;20200;-48
2021/06/02 11:55:13;;;;;;;8.23;3.30;;;22.20;58.00;;;;;;5134240;27;20183;-47
2021/06/02 11:57:44;;;;;;;6.68;3.60;;;22.20;57.90;;;;;;5136816;27;20636;-50
2021/06/02 12:00:12;;;;;;;17.88;3.55;;;22.30;58.00;;;;;;5135787;27;20631;-48
2021/06/02 12:02:38;;;;;;;14.95;4.45;;;22.10;56.80;;;;;;5117829;27;20184;-49
2021/06/02 12:05:13;;;;;;;12.65;3.33;;;22.20;57.60;;;;;;5141968;27;20172;-51
2021/06/02 12:07:45;;;;;;;15.20;3.65;;;22.20;56.80;;;;;;5143805;27;20179;-48
2021/06/02 12:10:12;;;;;;;11.18;3.55;;;22.20;56.50;;;;;;5145203;27;20167;-51
2021/06/02 12:12:43;;;;;;;13.25;4.05;;;22.50;57.00;;;;;;5119381;27;20203;-48
2021/06/02 12:15:09;;;;;;;31.75;5.38;;;22.50;57.50;;;;;;5124828;27;20180;-49
2021/06/02 12:17:36;;;;;;;11.63;3.47;;;22.60;57.40;;;;;;5145515;27;20167;-51
2021/06/02 12:20:05;;;;;;;6.68;3.05;;;22.50;56.70;;;;;;5143007;27;20195;-49
2021/06/02 12:22:31;;;;;;;9.02;3.35;;;22.60;56.40;;;;;;5145207;27;20171;-48
2021/06/02 12:25:26;;;;;;;16.10;3.20;;;22.60;55.80;;;;;;5138699;27;20214;-50
2021/06/02 12:27:59;;;;;;;9.95;3.00;;;22.50;55.00;;;;;;5087126;27;20191;-52
2021/06/02 12:30:27;;;;;;;14.23;3.30;;;22.70;55.70;;;;;;5134920;27;20168;-51
2021/06/02 12:32:59;;;;;;;8.20;3.53;;;22.80;56.40;;;;;;5116578;27;20195;-49
2021/06/02 12:35:39;;;;;;;4.72;2.83;;;22.70;55.40;;;;;;5114987;27;20216;-52
2021/06/02 12:38:16;;;;;;;191.85;16.85;;;22.70;55.60;;;;;;5135628;27;20183;-50
2021/06/02 12:40:52;;;;;;;65.45;7.57;;;22.40;55.80;;;;;;5135231;27;20171;-48
2021/06/02 12:43:22;;;;;;;6.18;2.85;;;22.30;56.30;;;;;;5134132;27;20688;-48
2021/06/02 12:45:52;;;;;;;24.67;3.08;;;22.20;57.40;;;;;;5134832;27;20792;-48
2021/06/02 12:48:31;;;;;;;20.30;3.33;;;21.90;57.60;;;;;;5134326;27;20168;-52
2021/06/02 12:50:57;;;;;;;4.85;2.83;;;21.70;58.70;;;;;;5135290;27;20199;-50
2021/06/02 12:53:26;;;;;;;7.25;2.90;;;21.60;59.50;;;;;;5135334;27;20211;-49
2021/06/02 12:55:52;;;;;;;13.07;3.20;;;21.50;60.40;;;;;;5099452;27;20625;-50
2021/06/02 12:58:19;;;;;;;8.57;3.17;;;21.60;61.70;;;;;;5116651;27;20198;-48
2021/06/02 13:00:46;;;;;;;8.00;3.13;;;21.50;62.10;;;;;;5135627;27;20186;-52
2021/06/02 13:03:13;;;;;;;6.65;3.08;;;21.50;64.00;;;;;;5135477;27;20184;-52
2021/06/02 13:05:43;;;;;;;10.85;3.08;;;21.50;65.90;;;;;;5126022;27;20171;-52
2021/06/02 13:08:09;;;;;;;103.05;7.93;;;21.20;65.90;;;;;;5135343;27;20191;-50
2021/06/02 13:10:36;;;;;;;20.75;3.78;;;21.10;66.80;;;;;;5134165;27;20207;-51
2021/06/02 13:13:04;;;;;;;6.43;3.03;;;20.90;68.60;;;;;;5134545;27;20203;-50
2021/06/02 13:15:33;;;;;;;14.00;3.08;;;20.90;69.90;;;;;;5131532;27;20172;-48
2021/06/02 13:17:59;;;;;;;10.65;3.03;;;20.90;70.90;;;;;;5134908;27;20524;-48
2021/06/02 13:20:38;;;;;;;127.13;8.43;;;21.00;71.00;;;;;;5134598;27;21735;-49